sensor_id;sensor_type;location;lat;lon;timestamp;P1;durP1;ratioP1;P2;durP2;ratioP2
56824;SDS011;42705;50.326;18.772;2023-08-01T00:00:04;4.20;;;2.70;;
56824;SDS011;42705;50.326;18.772;2023-08-01T00:05:54;6.90;;;3.20;;
56824;SDS011;42705;50.326;18.772;2023-08-01T00:11:16;5.10;;;2.60;;
56824;SDS011;42705;50.326;18.772;2023-08-01T00:16:38;6.80;;;3.10;;
56824;SDS011;42705;50.326;18.772;2023-08-01T00:22:00;3.80;;;2.40;;
56824;SDS011;42705;50.326;18.772;2023-08-01T00:27:22;5.90;;;2.90;;
56824;SDS011;42705;50.326;18.772;2023-08-01T00:32:44;5.50;;;2.70;;
56824;SDS011;42705;50.326;18.772;2023-08-01T00:38:05;6.30;;;2.70;;
56824;SDS011;42705;50.326;18.772;2023-08-01T00:43:27;3.80;;;2.70;;
56824;SDS011;42705;50.326;18.772;2023-08-01T00:48:49;7.90;;;3.20;;
56824;SDS011;42705;50.326;18.772;2023-08-01T00:54:12;6.30;;;3.00;;
56824;SDS011;42705;50.326;18.772;2023-08-01T00:59:33;6.90;;;2.60;;
56824;SDS011;42705;50.326;18.772;2023-08-01T01:04:56;5.10;;;2.90;;
56824;SDS011;42705;50.326;18.772;2023-08-01T01:10:18;5.30;;;2.50;;
56824;SDS011;42705;50.326;18.772;2023-08-01T01:15:40;3.30;;;1.90;;
56824;SDS011;42705;50.326;18.772;2023-08-01T01:21:02;6.80;;;2.50;;
56824;SDS011;42705;50.326;18.772;2023-08-01T01:26:24;3.20;;;2.30;;
56824;SDS011;42705;50.326;18.772;2023-08-01T01:31:47;3.40;;;2.20;;
56824;SDS011;42705;50.326;18.772;2023-08-01T01:37:10;4.80;;;1.90;;
56824;SDS011;42705;50.326;18.772;2023-08-01T01:42:32;4.00;;;2.30;;
56824;SDS011;42705;50.326;18.772;2023-08-01T01:47:53;6.20;;;2.00;;
56824;SDS011;42705;50.326;18.772;2023-08-01T01:53:15;3.70;;;2.10;;
56824;SDS011;42705;50.326;18.772;2023-08-01T01:58:37;4.20;;;2.20;;
56824;SDS011;42705;50.326;18.772;2023-08-01T02:03:59;4.10;;;2.10;;
56824;SDS011;42705;50.326;18.772;2023-08-01T02:09:21;4.10;;;2.40;;
56824;SDS011;42705;50.326;18.772;2023-08-01T02:14:44;5.50;;;2.60;;
56824;SDS011;42705;50.326;18.772;2023-08-01T02:20:06;5.30;;;2.40;;
56824;SDS011;42705;50.326;18.772;2023-08-01T02:30:50;4.20;;;2.20;;
56824;SDS011;42705;50.326;18.772;2023-08-01T02:36:12;5.60;;;2.30;;
56824;SDS011;42705;50.326;18.772;2023-08-01T02:41:34;6.30;;;2.60;;
56824;SDS011;42705;50.326;18.772;2023-08-01T02:46:56;8.50;;;2.90;;
56824;SDS011;42705;50.326;18.772;2023-08-01T02:52:18;5.20;;;2.60;;
56824;SDS011;42705;50.326;18.772;2023-08-01T02:57:39;6.80;;;2.90;;
56824;SDS011;42705;50.326;18.772;2023-08-01T03:03:01;8.30;;;3.30;;
56824;SDS011;42705;50.326;18.772;2023-08-01T03:08:25;6.20;;;2.90;;
56824;SDS011;42705;50.326;18.772;2023-08-01T03:13:47;5.10;;;3.10;;
56824;SDS011;42705;50.326;18.772;2023-08-01T03:19:09;5.80;;;3.10;;
56824;SDS011;42705;50.326;18.772;2023-08-01T03:24:31;4.60;;;2.70;;
56824;SDS011;42705;50.326;18.772;2023-08-01T03:29:55;6.50;;;2.60;;
56824;SDS011;42705;50.326;18.772;2023-08-01T03:35:17;3.70;;;2.20;;
56824;SDS011;42705;50.326;18.772;2023-08-01T03:40:39;8.30;;;2.50;;
56824;SDS011;42705;50.326;18.772;2023-08-01T03:46:01;3.90;;;1.90;;
56824;SDS011;42705;50.326;18.772;2023-08-01T03:51:24;3.10;;;1.90;;
56824;SDS011;42705;50.326;18.772;2023-08-01T03:56:47;4.00;;;1.90;;
56824;SDS011;42705;50.326;18.772;2023-08-01T04:02:10;2.70;;;1.70;;
56824;SDS011;42705;50.326;18.772;2023-08-01T04:07:35;3.80;;;1.50;;
56824;SDS011;42705;50.326;18.772;2023-08-01T04:12:58;4.00;;;1.50;;
56824;SDS011;42705;50.326;18.772;2023-08-01T04:18:19;3.60;;;1.70;;
56824;SDS011;42705;50.326;18.772;2023-08-01T04:23:41;1.80;;;1.60;;
56824;SDS011;42705;50.326;18.772;2023-08-01T04:29:03;5.40;;;1.60;;
56824;SDS011;42705;50.326;18.772;2023-08-01T04:34:25;4.90;;;1.80;;
56824;SDS011;42705;50.326;18.772;2023-08-01T04:39:47;2.00;;;1.40;;
56824;SDS011;42705;50.326;18.772;2023-08-01T04:45:08;2.60;;;1.60;;
56824;SDS011;42705;50.326;18.772;2023-08-01T04:55:53;6.40;;;1.90;;
56824;SDS011;42705;50.326;18.772;2023-08-01T05:01:14;3.70;;;1.80;;
56824;SDS011;42705;50.326;18.772;2023-08-01T05:06:36;3.50;;;1.60;;
56824;SDS011;42705;50.326;18.772;2023-08-01T05:11:58;5.00;;;1.70;;
56824;SDS011;42705;50.326;18.772;2023-08-01T05:17:20;3.50;;;1.30;;
56824;SDS011;42705;50.326;18.772;2023-08-01T05:22:41;5.60;;;1.90;;
56824;SDS011;42705;50.326;18.772;2023-08-01T05:28:03;2.50;;;1.40;;
56824;SDS011;42705;50.326;18.772;2023-08-01T05:33:25;2.80;;;1.70;;
56824;SDS011;42705;50.326;18.772;2023-08-01T05:38:47;3.20;;;1.80;;
56824;SDS011;42705;50.326;18.772;2023-08-01T05:44:09;3.30;;;1.80;;
56824;SDS011;42705;50.326;18.772;2023-08-01T05:49:30;5.40;;;1.90;;
56824;SDS011;42705;50.326;18.772;2023-08-01T05:54:52;2.80;;;1.60;;
56824;SDS011;42705;50.326;18.772;2023-08-01T06:00:14;4.70;;;1.90;;
56824;SDS011;42705;50.326;18.772;2023-08-01T06:11:00;6.70;;;2.30;;
56824;SDS011;42705;50.326;18.772;2023-08-01T06:16:22;5.00;;;2.10;;
56824;SDS011;42705;50.326;18.772;2023-08-01T06:21:44;4.10;;;2.30;;
56824;SDS011;42705;50.326;18.772;2023-08-01T06:27:06;4.60;;;2.00;;
56824;SDS011;42705;50.326;18.772;2023-08-01T06:32:27;4.30;;;2.00;;
56824;SDS011;42705;50.326;18.772;2023-08-01T06:37:49;6.60;;;2.00;;
56824;SDS011;42705;50.326;18.772;2023-08-01T06:43:11;4.40;;;2.80;;
56824;SDS011;42705;50.326;18.772;2023-08-01T06:48:33;4.00;;;2.60;;
56824;SDS011;42705;50.326;18.772;2023-08-01T06:53:56;3.70;;;2.10;;
56824;SDS011;42705;50.326;18.772;2023-08-01T06:59:17;5.10;;;2.50;;
56824;SDS011;42705;50.326;18.772;2023-08-01T07:04:39;6.40;;;2.40;;
56824;SDS011;42705;50.326;18.772;2023-08-01T07:10:01;3.60;;;2.20;;
56824;SDS011;42705;50.326;18.772;2023-08-01T07:15:23;5.30;;;2.30;;
56824;SDS011;42705;50.326;18.772;2023-08-01T07:20:45;6.10;;;2.70;;
56824;SDS011;42705;50.326;18.772;2023-08-01T07:26:07;4.50;;;2.50;;
56824;SDS011;42705;50.326;18.772;2023-08-01T07:31:29;5.00;;;2.40;;
56824;SDS011;42705;50.326;18.772;2023-08-01T07:42:13;6.10;;;2.80;;
56824;SDS011;42705;50.326;18.772;2023-08-01T07:47:34;6.60;;;2.30;;
56824;SDS011;42705;50.326;18.772;2023-08-01T07:52:56;5.10;;;2.50;;
56824;SDS011;42705;50.326;18.772;2023-08-01T07:58:19;4.70;;;2.80;;
56824;SDS011;42705;50.326;18.772;2023-08-01T08:03:40;4.40;;;2.80;;
56824;SDS011;42705;50.326;18.772;2023-08-01T08:09:02;6.60;;;3.00;;
56824;SDS011;42705;50.326;18.772;2023-08-01T08:14:24;5.50;;;3.10;;
56824;SDS011;42705;50.326;18.772;2023-08-01T08:19:46;8.30;;;3.00;;
56824;SDS011;42705;50.326;18.772;2023-08-01T08:25:08;5.70;;;2.80;;
56824;SDS011;42705;50.326;18.772;2023-08-01T08:30:30;5.70;;;2.80;;
56824;SDS011;42705;50.326;18.772;2023-08-01T08:35:52;5.80;;;2.80;;
56824;SDS011;42705;50.326;18.772;2023-08-01T08:41:13;5.70;;;3.40;;
56824;SDS011;42705;50.326;18.772;2023-08-01T08:46:42;5.30;;;3.60;;
56824;SDS011;42705;50.326;18.772;2023-08-01T08:52:06;5.60;;;3.30;;
56824;SDS011;42705;50.326;18.772;2023-08-01T08:57:28;6.80;;;3.50;;
56824;SDS011;42705;50.326;18.772;2023-08-01T09:02:51;7.70;;;3.70;;
56824;SDS011;42705;50.326;18.772;2023-08-01T09:08:20;6.40;;;3.60;;
56824;SDS011;42705;50.326;18.772;2023-08-01T09:13:43;4.20;;;2.90;;
56824;SDS011;42705;50.326;18.772;2023-08-01T09:19:05;6.50;;;3.30;;
56824;SDS011;42705;50.326;18.772;2023-08-01T09:24:28;10.00;;;3.60;;
56824;SDS011;42705;50.326;18.772;2023-08-01T09:29:50;5.20;;;3.70;;
56824;SDS011;42705;50.326;18.772;2023-08-01T09:35:11;7.60;;;3.10;;
56824;SDS011;42705;50.326;18.772;2023-08-01T09:40:37;6.60;;;3.30;;
56824;SDS011;42705;50.326;18.772;2023-08-01T09:46:01;5.10;;;3.60;;
56824;SDS011;42705;50.326;18.772;2023-08-01T09:51:24;8.60;;;4.40;;
56824;SDS011;42705;50.326;18.772;2023-08-01T09:56:46;8.10;;;3.30;;
56824;SDS011;42705;50.326;18.772;2023-08-01T10:02:14;7.60;;;3.70;;
56824;SDS011;42705;50.326;18.772;2023-08-01T10:07:41;5.80;;;3.80;;
56824;SDS011;42705;50.326;18.772;2023-08-01T10:13:06;6.30;;;3.50;;
56824;SDS011;42705;50.326;18.772;2023-08-01T10:18:29;7.30;;;3.90;;
56824;SDS011;42705;50.326;18.772;2023-08-01T10:23:51;8.80;;;4.10;;
56824;SDS011;42705;50.326;18.772;2023-08-01T10:29:14;8.40;;;4.30;;
56824;SDS011;42705;50.326;18.772;2023-08-01T10:34:36;5.00;;;3.50;;
56824;SDS011;42705;50.326;18.772;2023-08-01T10:39:58;5.80;;;3.50;;
56824;SDS011;42705;50.326;18.772;2023-08-01T10:45:22;4.90;;;3.00;;
56824;SDS011;42705;50.326;18.772;2023-08-01T10:50:53;4.20;;;2.50;;
56824;SDS011;42705;50.326;18.772;2023-08-01T10:56:19;10.40;;;3.00;;
56824;SDS011;42705;50.326;18.772;2023-08-01T11:01:52;6.10;;;2.90;;
56824;SDS011;42705;50.326;18.772;2023-08-01T11:07:15;4.40;;;2.70;;
56824;SDS011;42705;50.326;18.772;2023-08-01T11:12:38;4.10;;;2.60;;
56824;SDS011;42705;50.326;18.772;2023-08-01T11:18:01;4.30;;;2.60;;
56824;SDS011;42705;50.326;18.772;2023-08-01T11:23:29;6.90;;;2.60;;
56824;SDS011;42705;50.326;18.772;2023-08-01T11:28:51;4.70;;;2.90;;
56824;SDS011;42705;50.326;18.772;2023-08-01T11:34:13;6.00;;;3.10;;
56824;SDS011;42705;50.326;18.772;2023-08-01T11:39:35;5.00;;;2.90;;
56824;SDS011;42705;50.326;18.772;2023-08-01T11:45:07;4.50;;;2.90;;
56824;SDS011;42705;50.326;18.772;2023-08-01T11:50:29;4.70;;;2.60;;
56824;SDS011;42705;50.326;18.772;2023-08-01T11:55:51;5.20;;;2.90;;
56824;SDS011;42705;50.326;18.772;2023-08-01T12:01:14;5.70;;;2.90;;
56824;SDS011;42705;50.326;18.772;2023-08-01T12:12:00;5.40;;;2.80;;
56824;SDS011;42705;50.326;18.772;2023-08-01T12:17:22;4.40;;;2.80;;
56824;SDS011;42705;50.326;18.772;2023-08-01T12:22:44;4.30;;;2.70;;
56824;SDS011;42705;50.326;18.772;2023-08-01T12:28:06;6.30;;;2.70;;
56824;SDS011;42705;50.326;18.772;2023-08-01T12:33:28;3.90;;;2.70;;
56824;SDS011;42705;50.326;18.772;2023-08-01T12:38:50;3.40;;;2.30;;
56824;SDS011;42705;50.326;18.772;2023-08-01T12:44:12;4.20;;;2.70;;
56824;SDS011;42705;50.326;18.772;2023-08-01T12:49:37;4.20;;;2.90;;
56824;SDS011;42705;50.326;18.772;2023-08-01T12:54:59;3.60;;;2.80;;
56824;SDS011;42705;50.326;18.772;2023-08-01T13:00:21;5.40;;;2.90;;
56824;SDS011;42705;50.326;18.772;2023-08-01T13:05:43;4.30;;;2.50;;
56824;SDS011;42705;50.326;18.772;2023-08-01T13:11:12;4.50;;;2.70;;
56824;SDS011;42705;50.326;18.772;2023-08-01T13:16:35;3.70;;;2.80;;
56824;SDS011;42705;50.326;18.772;2023-08-01T13:21:57;3.30;;;2.40;;
56824;SDS011;42705;50.326;18.772;2023-08-01T13:27:19;3.70;;;2.50;;
56824;SDS011;42705;50.326;18.772;2023-08-01T13:32:41;4.40;;;3.10;;
56824;SDS011;42705;50.326;18.772;2023-08-01T13:38:03;7.50;;;3.00;;
56824;SDS011;42705;50.326;18.772;2023-08-01T13:43:26;6.50;;;3.00;;
56824;SDS011;42705;50.326;18.772;2023-08-01T13:48:48;3.70;;;2.60;;
56824;SDS011;42705;50.326;18.772;2023-08-01T13:54:10;4.00;;;2.70;;
56824;SDS011;42705;50.326;18.772;2023-08-01T13:59:32;3.60;;;2.90;;
56824;SDS011;42705;50.326;18.772;2023-08-01T14:04:54;5.00;;;3.00;;
56824;SDS011;42705;50.326;18.772;2023-08-01T14:10:16;5.00;;;2.90;;
56824;SDS011;42705;50.326;18.772;2023-08-01T14:15:38;5.50;;;3.30;;
56824;SDS011;42705;50.326;18.772;2023-08-01T14:21:00;5.20;;;2.90;;
56824;SDS011;42705;50.326;18.772;2023-08-01T14:26:22;3.20;;;2.60;;
56824;SDS011;42705;50.326;18.772;2023-08-01T14:31:43;5.50;;;2.80;;
56824;SDS011;42705;50.326;18.772;2023-08-01T14:37:06;4.30;;;2.30;;
56824;SDS011;42705;50.326;18.772;2023-08-01T14:42:28;3.50;;;2.40;;
56824;SDS011;42705;50.326;18.772;2023-08-01T14:47:50;4.40;;;2.70;;
56824;SDS011;42705;50.326;18.772;2023-08-01T14:53:12;4.00;;;3.00;;
56824;SDS011;42705;50.326;18.772;2023-08-01T14:58:34;4.00;;;2.50;;
56824;SDS011;42705;50.326;18.772;2023-08-01T15:04:00;3.80;;;2.90;;
56824;SDS011;42705;50.326;18.772;2023-08-01T15:09:22;4.40;;;2.50;;
56824;SDS011;42705;50.326;18.772;2023-08-01T15:14:44;4.50;;;3.10;;
56824;SDS011;42705;50.326;18.772;2023-08-01T15:20:06;5.00;;;3.10;;
56824;SDS011;42705;50.326;18.772;2023-08-01T15:25:28;3.80;;;2.80;;
56824;SDS011;42705;50.326;18.772;2023-08-01T15:31:00;5.20;;;2.70;;
56824;SDS011;42705;50.326;18.772;2023-08-01T15:36:27;4.50;;;2.70;;
56824;SDS011;42705;50.326;18.772;2023-08-01T15:41:50;4.40;;;2.80;;
56824;SDS011;42705;50.326;18.772;2023-08-01T15:47:12;4.20;;;2.60;;
56824;SDS011;42705;50.326;18.772;2023-08-01T15:52:34;4.80;;;2.70;;
56824;SDS011;42705;50.326;18.772;2023-08-01T15:57:56;4.70;;;2.20;;
56824;SDS011;42705;50.326;18.772;2023-08-01T16:03:19;3.70;;;2.30;;
56824;SDS011;42705;50.326;18.772;2023-08-01T16:08:41;2.40;;;2.00;;
56824;SDS011;42705;50.326;18.772;2023-08-01T16:14:03;5.40;;;2.60;;
56824;SDS011;42705;50.326;18.772;2023-08-01T16:19:25;3.80;;;2.40;;
56824;SDS011;42705;50.326;18.772;2023-08-01T16:24:47;4.50;;;2.70;;
56824;SDS011;42705;50.326;18.772;2023-08-01T16:30:09;3.90;;;2.50;;
56824;SDS011;42705;50.326;18.772;2023-08-01T16:35:32;4.30;;;2.30;;
56824;SDS011;42705;50.326;18.772;2023-08-01T16:40:56;4.20;;;2.30;;
56824;SDS011;42705;50.326;18.772;2023-08-01T16:46:19;4.60;;;2.80;;
56824;SDS011;42705;50.326;18.772;2023-08-01T16:51:41;4.30;;;2.50;;
56824;SDS011;42705;50.326;18.772;2023-08-01T16:57:03;3.50;;;2.30;;
56824;SDS011;42705;50.326;18.772;2023-08-01T17:07:48;3.20;;;2.30;;
56824;SDS011;42705;50.326;18.772;2023-08-01T17:13:10;4.90;;;2.80;;
56824;SDS011;42705;50.326;18.772;2023-08-01T17:18:32;3.80;;;2.00;;
56824;SDS011;42705;50.326;18.772;2023-08-01T17:23:54;3.70;;;2.30;;
56824;SDS011;42705;50.326;18.772;2023-08-01T17:29:15;2.20;;;2.00;;
56824;SDS011;42705;50.326;18.772;2023-08-01T17:34:37;4.30;;;2.50;;
56824;SDS011;42705;50.326;18.772;2023-08-01T17:39:59;4.70;;;2.40;;
56824;SDS011;42705;50.326;18.772;2023-08-01T17:45:21;4.20;;;2.00;;
56824;SDS011;42705;50.326;18.772;2023-08-01T17:50:43;4.10;;;2.10;;
56824;SDS011;42705;50.326;18.772;2023-08-01T17:56:05;2.90;;;1.90;;
56824;SDS011;42705;50.326;18.772;2023-08-01T18:01:27;3.20;;;2.20;;
56824;SDS011;42705;50.326;18.772;2023-08-01T18:06:50;4.30;;;3.00;;
56824;SDS011;42705;50.326;18.772;2023-08-01T18:12:12;6.30;;;2.50;;
56824;SDS011;42705;50.326;18.772;2023-08-01T18:17:34;5.50;;;3.20;;
56824;SDS011;42705;50.326;18.772;2023-08-01T18:22:56;5.20;;;2.90;;
56824;SDS011;42705;50.326;18.772;2023-08-01T18:28:17;4.40;;;2.60;;
56824;SDS011;42705;50.326;18.772;2023-08-01T18:33:40;5.30;;;2.70;;
56824;SDS011;42705;50.326;18.772;2023-08-01T18:39:02;2.80;;;2.50;;
56824;SDS011;42705;50.326;18.772;2023-08-01T18:44:26;4.50;;;2.60;;
56824;SDS011;42705;50.326;18.772;2023-08-01T18:49:48;6.20;;;2.50;;
56824;SDS011;42705;50.326;18.772;2023-08-01T18:55:11;3.90;;;2.30;;
56824;SDS011;42705;50.326;18.772;2023-08-01T19:00:33;4.10;;;2.30;;
56824;SDS011;42705;50.326;18.772;2023-08-01T19:05:55;4.50;;;2.40;;
56824;SDS011;42705;50.326;18.772;2023-08-01T19:11:17;4.10;;;2.40;;
56824;SDS011;42705;50.326;18.772;2023-08-01T19:16:39;5.10;;;2.80;;
56824;SDS011;42705;50.326;18.772;2023-08-01T19:22:01;2.70;;;2.10;;
56824;SDS011;42705;50.326;18.772;2023-08-01T19:27:23;4.90;;;2.80;;
56824;SDS011;42705;50.326;18.772;2023-08-01T19:32:45;3.40;;;2.30;;
56824;SDS011;42705;50.326;18.772;2023-08-01T19:38:07;7.60;;;2.70;;
56824;SDS011;42705;50.326;18.772;2023-08-01T19:43:29;6.70;;;3.60;;
56824;SDS011;42705;50.326;18.772;2023-08-01T19:48:52;5.10;;;2.70;;
56824;SDS011;42705;50.326;18.772;2023-08-01T19:54:14;3.60;;;2.70;;
56824;SDS011;42705;50.326;18.772;2023-08-01T19:59:36;5.50;;;2.90;;
56824;SDS011;42705;50.326;18.772;2023-08-01T20:04:58;3.50;;;2.80;;
56824;SDS011;42705;50.326;18.772;2023-08-01T20:10:19;6.10;;;3.20;;
56824;SDS011;42705;50.326;18.772;2023-08-01T20:15:41;4.40;;;2.60;;
56824;SDS011;42705;50.326;18.772;2023-08-01T20:21:04;7.70;;;3.40;;
56824;SDS011;42705;50.326;18.772;2023-08-01T20:26:26;5.00;;;2.90;;
56824;SDS011;42705;50.326;18.772;2023-08-01T20:31:48;5.90;;;3.70;;
56824;SDS011;42705;50.326;18.772;2023-08-01T20:37:10;5.80;;;3.20;;
56824;SDS011;42705;50.326;18.772;2023-08-01T20:42:32;5.70;;;3.20;;
56824;SDS011;42705;50.326;18.772;2023-08-01T20:47:54;5.90;;;3.50;;
56824;SDS011;42705;50.326;18.772;2023-08-01T20:53:16;6.40;;;3.00;;
56824;SDS011;42705;50.326;18.772;2023-08-01T20:58:38;6.30;;;3.40;;
56824;SDS011;42705;50.326;18.772;2023-08-01T21:04:00;5.80;;;3.00;;
56824;SDS011;42705;50.326;18.772;2023-08-01T21:09:22;4.90;;;3.00;;
56824;SDS011;42705;50.326;18.772;2023-08-01T21:14:44;4.50;;;2.90;;
56824;SDS011;42705;50.326;18.772;2023-08-01T21:20:06;5.20;;;3.20;;
56824;SDS011;42705;50.326;18.772;2023-08-01T21:25:33;5.10;;;2.90;;
56824;SDS011;42705;50.326;18.772;2023-08-01T21:30:54;5.40;;;3.10;;
56824;SDS011;42705;50.326;18.772;2023-08-01T21:36:17;6.90;;;3.20;;
56824;SDS011;42705;50.326;18.772;2023-08-01T21:41:38;6.50;;;2.90;;
56824;SDS011;42705;50.326;18.772;2023-08-01T21:47:03;5.30;;;3.20;;
56824;SDS011;42705;50.326;18.772;2023-08-01T21:52:25;5.20;;;3.40;;
56824;SDS011;42705;50.326;18.772;2023-08-01T21:57:47;7.60;;;3.40;;
56824;SDS011;42705;50.326;18.772;2023-08-01T22:03:10;5.00;;;3.20;;
56824;SDS011;42705;50.326;18.772;2023-08-01T22:08:33;5.70;;;3.60;;
56824;SDS011;42705;50.326;18.772;2023-08-01T22:13:55;6.80;;;3.40;;
56824;SDS011;42705;50.326;18.772;2023-08-01T22:19:17;5.30;;;3.20;;
56824;SDS011;42705;50.326;18.772;2023-08-01T22:24:39;5.40;;;3.40;;
56824;SDS011;42705;50.326;18.772;2023-08-01T22:30:00;6.60;;;2.90;;
56824;SDS011;42705;50.326;18.772;2023-08-01T22:35:22;4.00;;;3.00;;
56824;SDS011;42705;50.326;18.772;2023-08-01T22:40:44;4.90;;;2.70;;
56824;SDS011;42705;50.326;18.772;2023-08-01T22:46:06;6.60;;;2.70;;
56824;SDS011;42705;50.326;18.772;2023-08-01T22:51:28;6.90;;;3.50;;
56824;SDS011;42705;50.326;18.772;2023-08-01T22:56:50;6.30;;;2.80;;
56824;SDS011;42705;50.326;18.772;2023-08-01T23:02:12;6.50;;;2.60;;
56824;SDS011;42705;50.326;18.772;2023-08-01T23:07:34;6.80;;;3.40;;
56824;SDS011;42705;50.326;18.772;2023-08-01T23:12:56;6.80;;;2.80;;
56824;SDS011;42705;50.326;18.772;2023-08-01T23:18:18;5.60;;;2.80;;
56824;SDS011;42705;50.326;18.772;2023-08-01T23:23:40;5.60;;;2.80;;
56824;SDS011;42705;50.326;18.772;2023-08-01T23:29:01;4.60;;;3.00;;
56824;SDS011;42705;50.326;18.772;2023-08-01T23:34:23;6.40;;;3.30;;
56824;SDS011;42705;50.326;18.772;2023-08-01T23:39:45;5.60;;;3.00;;
56824;SDS011;42705;50.326;18.772;2023-08-01T23:45:07;6.10;;;3.10;;
56824;SDS011;42705;50.326;18.772;2023-08-01T23:50:29;5.60;;;3.20;;
56824;SDS011;42705;50.326;18.772;2023-08-01T23:56:00;4.50;;;3.00;;
